createdAt,value
2019-03-11T00:01:22.093Z,4.20
2019-03-11T00:03:51.129Z,4.20
2019-03-11T00:06:20.157Z,4.10
2019-03-11T00:08:49.228Z,4.10
2019-03-11T00:11:18.199Z,4.10
2019-03-11T00:13:47.270Z,4.10
2019-03-11T00:16:16.357Z,4.10
2019-03-11T00:18:45.447Z,4.10
2019-03-11T00:21:14.507Z,4.20
2019-03-11T00:23:43.564Z,4.20
2019-03-11T00:26:12.605Z,4.20
2019-03-11T00:28:41.943Z,4.20
2019-03-11T00:31:10.999Z,4.20
2019-03-11T00:33:40.034Z,4.10
2019-03-11T00:36:09.103Z,4.10
2019-03-11T00:38:38.154Z,4.10
2019-03-11T00:41:07.226Z,4.20
2019-03-11T00:43:36.309Z,4.00
2019-03-11T00:46:05.382Z,4.00
2019-03-11T00:48:34.436Z,3.90
2019-03-11T00:51:03.499Z,3.90
2019-03-11T00:53:32.607Z,4.00
2019-03-11T00:56:01.686Z,4.00
2019-03-11T00:58:30.746Z,3.90
2019-03-11T01:00:59.889Z,3.90
2019-03-11T01:03:28.957Z,3.90
2019-03-11T01:05:58.060Z,4.00
2019-03-11T01:08:29.057Z,3.90
2019-03-11T01:10:57.899Z,3.90
2019-03-11T01:13:26.954Z,3.90
2019-03-11T01:15:56.281Z,3.80
2019-03-11T01:18:25.354Z,3.90
2019-03-11T01:20:54.385Z,4.00
2019-03-11T01:23:23.665Z,4.00
2019-03-11T01:25:53.022Z,4.00
2019-03-11T01:28:22.089Z,4.10
2019-03-11T01:30:51.141Z,4.10
2019-03-11T01:33:20.235Z,4.10
2019-03-11T01:35:49.574Z,4.00
2019-03-11T01:38:18.616Z,4.00
2019-03-11T01:40:47.669Z,4.00
2019-03-11T01:43:16.719Z,4.00
2019-03-11T01:45:45.839Z,4.10
2019-03-11T01:48:14.932Z,4.10
2019-03-11T01:50:43.966Z,4.10
2019-03-11T01:53:13.022Z,4.00
2019-03-11T01:55:45.206Z,4.00
2019-03-11T01:58:14.282Z,3.90
2019-03-11T02:00:43.323Z,3.90
2019-03-11T02:03:12.833Z,3.90
2019-03-11T02:05:41.906Z,3.90
2019-03-11T02:08:11.014Z,3.90
2019-03-11T02:10:40.151Z,3.90
2019-03-11T02:13:09.265Z,3.90
2019-03-11T02:15:38.310Z,4.00
2019-03-11T02:18:07.410Z,4.00
2019-03-11T02:20:36.472Z,4.10
2019-03-11T02:23:05.537Z,4.10
2019-03-11T02:25:37.697Z,4.00
2019-03-11T02:28:06.998Z,4.00
2019-03-11T02:30:36.276Z,4.00
2019-03-11T02:33:05.574Z,4.00
2019-03-11T02:35:34.886Z,3.90
2019-03-11T02:38:04.164Z,3.80
2019-03-11T02:40:33.468Z,4.00
2019-03-11T02:43:02.760Z,4.00
2019-03-11T02:45:32.055Z,4.00
2019-03-11T02:48:01.333Z,4.00
2019-03-11T02:50:30.681Z,3.80
2019-03-11T02:52:59.982Z,3.80
2019-03-11T02:55:29.279Z,3.90
2019-03-11T02:57:58.605Z,3.80
2019-03-11T03:00:27.900Z,3.80
2019-03-11T03:03:18.945Z,3.70
2019-03-11T03:05:51.931Z,3.70
2019-03-11T03:08:21.184Z,3.70
2019-03-11T03:10:50.488Z,3.80
2019-03-11T03:13:19.784Z,3.70
2019-03-11T03:15:49.162Z,3.70
2019-03-11T03:18:18.514Z,3.70
2019-03-11T03:20:47.830Z,3.60
2019-03-11T03:23:17.129Z,3.70
2019-03-11T03:25:46.410Z,3.60
2019-03-11T03:28:15.685Z,3.60
2019-03-11T03:30:44.962Z,3.60
2019-03-11T03:33:14.292Z,3.60
2019-03-11T03:35:43.712Z,3.50
2019-03-11T03:38:13.032Z,3.60
2019-03-11T03:40:42.537Z,3.60
2019-03-11T03:43:11.812Z,3.60
2019-03-11T03:46:00.185Z,3.70
2019-03-11T03:48:29.516Z,3.70
2019-03-11T03:50:58.973Z,3.60
2019-03-11T03:53:28.301Z,3.70
2019-03-11T03:55:57.910Z,3.60
2019-03-11T03:58:27.258Z,3.70
2019-03-11T04:00:56.589Z,3.70
2019-03-11T04:03:25.921Z,3.70
2019-03-11T04:05:55.190Z,3.80
2019-03-11T04:08:24.459Z,3.70
2019-03-11T04:10:53.944Z,3.90
2019-03-11T04:13:23.262Z,4.00
2019-03-11T04:15:52.656Z,3.80
2019-03-11T04:18:22.828Z,3.80
2019-03-11T04:20:52.109Z,3.90
2019-03-11T04:23:21.463Z,3.90
2019-03-11T04:25:50.734Z,3.90
2019-03-11T04:28:20.014Z,3.80
2019-03-11T04:30:49.300Z,3.90
2019-03-11T04:33:18.977Z,3.90
2019-03-11T04:35:48.249Z,3.90
2019-03-11T04:38:17.648Z,3.90
2019-03-11T04:40:46.913Z,3.90
2019-03-11T04:43:16.299Z,4.00
2019-03-11T04:45:45.584Z,3.90
2019-03-11T04:48:14.872Z,4.00
2019-03-11T04:50:44.160Z,4.10
2019-03-11T04:53:13.437Z,4.20
2019-03-11T04:55:42.732Z,4.20
2019-03-11T04:58:11.996Z,4.10
2019-03-11T05:00:41.309Z,4.00
2019-03-11T05:03:10.600Z,4.00
2019-03-11T05:05:39.892Z,3.90
2019-03-11T05:08:09.198Z,3.90
2019-03-11T05:10:38.519Z,3.90
2019-03-11T05:13:11.177Z,3.90
2019-03-11T05:15:40.477Z,3.80
2019-03-11T05:18:09.818Z,3.80
2019-03-11T05:20:39.089Z,3.80
2019-03-11T05:23:08.472Z,3.90
2019-03-11T05:25:37.841Z,3.90
2019-03-11T05:28:07.132Z,4.00
2019-03-11T05:30:36.468Z,3.90
2019-03-11T05:33:06.037Z,3.90
2019-03-11T05:35:35.355Z,3.90
2019-03-11T05:38:04.716Z,4.00
2019-03-11T05:40:34.119Z,4.00
2019-03-11T05:43:03.412Z,4.00
2019-03-11T05:45:32.687Z,4.10
2019-03-11T05:48:01.990Z,4.10
2019-03-11T05:50:31.340Z,4.20
2019-03-11T05:53:00.613Z,4.30
2019-03-11T05:55:29.970Z,4.20
2019-03-11T05:57:59.254Z,4.20
2019-03-11T06:00:30.797Z,4.30
2019-03-11T06:03:00.131Z,4.30
2019-03-11T06:05:29.432Z,4.30
2019-03-11T06:07:58.735Z,4.30
2019-03-11T06:10:28.112Z,4.40
2019-03-11T06:12:57.423Z,4.30
2019-03-11T06:15:26.705Z,4.30
2019-03-11T06:17:56.061Z,4.30
2019-03-11T06:20:47.550Z,4.40
2019-03-11T06:23:16.844Z,4.40
2019-03-11T06:25:46.127Z,4.40
2019-03-11T06:28:15.679Z,4.40
2019-03-11T06:30:45.018Z,4.40
2019-03-11T06:33:14.369Z,4.50
2019-03-11T06:35:43.726Z,4.40
2019-03-11T06:38:13.004Z,4.50
2019-03-11T06:40:42.306Z,4.50
2019-03-11T06:43:11.722Z,4.50
2019-03-11T06:45:41.236Z,4.70
2019-03-11T06:48:10.593Z,4.60
2019-03-11T06:50:39.922Z,4.70
2019-03-11T06:53:09.331Z,4.60
2019-03-11T06:55:38.593Z,4.60
2019-03-11T06:58:07.949Z,4.70
2019-03-11T07:00:37.293Z,4.80
2019-03-11T07:03:06.664Z,4.70
2019-03-11T07:05:35.925Z,4.80
2019-03-11T07:08:05.204Z,4.90
2019-03-11T07:10:34.518Z,5.00
2019-03-11T07:13:03.885Z,5.00
2019-03-11T07:15:34.656Z,4.90
2019-03-11T07:18:04.057Z,5.00
2019-03-11T07:20:33.399Z,4.90
2019-03-11T07:23:02.778Z,5.00
2019-03-11T07:25:32.048Z,5.00
2019-03-11T07:28:01.349Z,4.90
2019-03-11T07:30:30.611Z,4.90
2019-03-11T07:32:59.931Z,5.00
2019-03-11T07:35:29.209Z,5.00
2019-03-11T07:37:58.703Z,5.10
2019-03-11T07:40:30.084Z,5.20
2019-03-11T07:42:59.310Z,5.10
2019-03-11T07:45:28.718Z,5.00
2019-03-11T07:47:58.004Z,5.10
2019-03-11T07:50:27.277Z,5.00
2019-03-11T07:52:56.575Z,5.00
2019-03-11T07:55:26.181Z,5.00
2019-03-11T07:57:55.680Z,5.00
2019-03-11T08:00:25.008Z,5.00
2019-03-11T08:02:54.341Z,5.00
2019-03-11T08:05:23.647Z,5.00
2019-03-11T08:07:52.971Z,5.00
2019-03-11T08:10:22.542Z,5.10
2019-03-11T08:12:51.929Z,5.10
2019-03-11T08:15:21.229Z,5.10
2019-03-11T08:17:50.602Z,5.00
2019-03-11T08:20:19.928Z,5.00
2019-03-11T08:22:49.246Z,5.10
2019-03-11T08:25:18.520Z,5.10
2019-03-11T08:27:47.945Z,5.10
2019-03-11T08:30:17.566Z,5.00
2019-03-11T08:32:46.941Z,5.00
2019-03-11T08:35:16.471Z,5.10
2019-03-11T08:37:46.061Z,5.20
2019-03-11T08:40:15.358Z,5.20
2019-03-11T08:42:44.657Z,5.00
2019-03-11T08:45:14.199Z,5.00
2019-03-11T08:47:43.723Z,5.00
2019-03-11T08:50:13.342Z,5.00
2019-03-11T08:52:42.680Z,5.00
2019-03-11T08:55:12.130Z,5.10
2019-03-11T08:57:41.678Z,5.10
2019-03-11T09:00:11.589Z,5.10
2019-03-11T09:02:40.932Z,5.10
2019-03-11T09:05:11.012Z,5.20
2019-03-11T09:07:40.442Z,5.40
2019-03-11T09:10:11.889Z,5.40
2019-03-11T09:12:41.258Z,5.40
2019-03-11T09:15:12.118Z,5.30
2019-03-11T09:17:41.469Z,5.20
2019-03-11T09:20:11.138Z,5.30
2019-03-11T09:22:40.438Z,5.20
2019-03-11T09:25:11.867Z,5.40
2019-03-11T09:27:41.246Z,5.40
2019-03-11T09:30:13.472Z,5.40
2019-03-11T09:32:42.917Z,5.40
2019-03-11T09:35:12.776Z,5.50
2019-03-11T09:37:42.152Z,5.50
2019-03-11T09:40:12.863Z,5.50
2019-03-11T09:42:42.198Z,5.50
2019-03-11T09:45:12.186Z,5.60
2019-03-11T09:47:43.797Z,5.60
2019-03-11T09:50:13.370Z,5.60
2019-03-11T09:52:43.004Z,5.70
2019-03-11T09:55:12.862Z,5.80
2019-03-11T09:57:42.388Z,5.80
2019-03-11T10:00:17.896Z,6.00
2019-03-11T10:02:52.119Z,6.20
2019-03-11T10:05:18.532Z,6.20
2019-03-11T10:07:47.930Z,6.10
2019-03-11T10:10:18.403Z,6.00
2019-03-11T10:12:48.450Z,6.00
2019-03-11T10:15:18.744Z,6.00
2019-03-11T10:17:48.291Z,5.90
2019-03-11T10:20:17.944Z,5.70
2019-03-11T10:22:47.700Z,5.50
2019-03-11T10:25:17.198Z,5.50
2019-03-11T10:27:46.584Z,5.70
2019-03-11T10:30:17.198Z,5.60
2019-03-11T10:32:46.594Z,5.60
2019-03-11T10:35:30.938Z,5.80
2019-03-11T10:37:47.448Z,5.90
2019-03-11T10:40:18.447Z,5.60
2019-03-11T10:42:47.831Z,5.60
2019-03-11T10:45:17.607Z,5.80
2019-03-11T10:47:46.997Z,5.90
2019-03-11T10:50:16.673Z,6.10
2019-03-11T10:52:46.082Z,6.00
2019-03-11T10:55:15.608Z,6.10
2019-03-11T10:57:44.887Z,6.30
2019-03-11T11:00:20.381Z,6.40
2019-03-11T11:02:49.721Z,6.20
2019-03-11T11:05:19.013Z,6.10
2019-03-11T11:07:48.376Z,6.20
2019-03-11T11:10:17.749Z,6.10
2019-03-11T11:12:47.164Z,5.90
2019-03-11T11:15:18.417Z,5.60
2019-03-11T11:17:47.788Z,5.60
2019-03-11T11:20:17.546Z,5.50
2019-03-11T11:22:46.883Z,5.50
2019-03-11T11:25:18.241Z,5.50
2019-03-11T11:27:47.655Z,5.40
2019-03-11T11:30:19.052Z,5.40
2019-03-11T11:32:48.857Z,5.40
2019-03-11T11:35:18.904Z,5.40
2019-03-11T11:37:48.344Z,5.50
2019-03-11T11:40:22.908Z,5.10
2019-03-11T11:42:52.389Z,5.10
2019-03-11T11:45:22.133Z,5.00
2019-03-11T11:47:51.652Z,5.10
2019-03-11T11:50:21.307Z,5.00
2019-03-11T11:52:51.066Z,5.00
2019-03-11T11:55:20.723Z,4.90
2019-03-11T11:57:50.537Z,4.90
2019-03-11T12:00:22.918Z,5.10
2019-03-11T12:02:52.220Z,5.20
2019-03-11T12:05:22.690Z,5.10
2019-03-11T12:07:52.106Z,5.10
2019-03-11T12:10:21.825Z,5.30
2019-03-11T12:12:51.157Z,5.20
2019-03-11T12:15:20.468Z,5.10
2019-03-11T12:17:49.846Z,5.10
2019-03-11T12:20:22.934Z,5.30
2019-03-11T12:22:52.625Z,5.20
2019-03-11T12:25:21.995Z,5.30
2019-03-11T12:27:54.085Z,5.30
2019-03-11T12:30:24.072Z,5.40
2019-03-11T12:32:53.372Z,5.30
2019-03-11T12:35:24.048Z,5.30
2019-03-11T12:37:53.877Z,5.30
2019-03-11T12:40:23.738Z,5.40
2019-03-11T12:42:53.145Z,5.30
2019-03-11T12:45:22.502Z,5.30
2019-03-11T12:47:51.841Z,5.40
2019-03-11T12:50:21.716Z,5.40
2019-03-11T12:52:51.036Z,5.50
2019-03-11T12:55:21.553Z,5.50
2019-03-11T12:57:51.380Z,5.50
2019-03-11T13:00:21.385Z,5.60
2019-03-11T13:02:51.016Z,5.70
2019-03-11T13:05:20.907Z,5.50
2019-03-11T13:07:52.430Z,5.50
2019-03-11T13:10:21.978Z,5.50
2019-03-11T13:12:51.877Z,5.50
2019-03-11T13:15:21.253Z,5.50
2019-03-11T13:17:50.706Z,5.40
2019-03-11T13:20:26.417Z,5.40
2019-03-11T13:22:55.763Z,5.30
2019-03-11T13:25:25.194Z,5.60
2019-03-11T13:27:54.645Z,5.60
2019-03-11T13:30:24.103Z,5.50
2019-03-11T13:32:53.553Z,5.50
2019-03-11T13:35:24.736Z,5.50
2019-03-11T13:37:54.401Z,5.50
2019-03-11T13:40:23.699Z,5.60
2019-03-11T13:42:53.024Z,5.60
2019-03-11T13:45:22.292Z,5.70
2019-03-11T13:47:51.627Z,5.70
2019-03-11T13:50:21.172Z,5.70
2019-03-11T13:52:50.529Z,5.60
2019-03-11T13:55:19.912Z,5.60
2019-03-11T13:57:49.227Z,5.70
2019-03-11T14:00:19.177Z,5.80
2019-03-11T14:02:48.615Z,5.80
2019-03-11T14:05:17.978Z,5.80
2019-03-11T14:07:47.307Z,5.80
2019-03-11T14:10:16.698Z,6.00
2019-03-11T14:12:46.001Z,6.10
2019-03-11T14:15:15.494Z,6.10
2019-03-11T14:17:44.850Z,6.10
2019-03-11T14:20:14.518Z,6.00
2019-03-11T14:22:44.104Z,5.90
2019-03-11T14:25:13.677Z,6.00
2019-03-11T14:27:42.980Z,6.00
2019-03-11T14:30:12.889Z,6.00
2019-03-11T14:32:42.274Z,6.10
2019-03-11T14:35:11.608Z,6.00
2019-03-11T14:37:42.051Z,6.10
2019-03-11T14:40:11.878Z,6.10
2019-03-11T14:42:41.211Z,6.10
2019-03-11T14:45:12.278Z,6.10
2019-03-11T14:47:41.641Z,6.10
2019-03-11T14:50:11.383Z,6.10
2019-03-11T14:52:44.029Z,6.20
2019-03-11T14:55:13.388Z,6.30
2019-03-11T14:57:43.299Z,6.30
2019-03-11T15:00:14.810Z,6.20
2019-03-11T15:02:44.152Z,6.30
2019-03-11T15:05:14.101Z,6.40
2019-03-11T15:07:43.416Z,6.50
2019-03-11T15:10:13.245Z,6.60
2019-03-11T15:12:42.525Z,6.60
2019-03-11T15:15:13.675Z,6.50
2019-03-11T15:17:43.082Z,6.60
2019-03-11T15:20:13.061Z,6.60
2019-03-11T15:22:42.333Z,6.50
2019-03-11T15:25:12.573Z,6.60
2019-03-11T15:27:42.026Z,6.60
2019-03-11T15:30:13.768Z,6.50
2019-03-11T15:32:43.204Z,6.40
2019-03-11T15:35:12.656Z,6.20
2019-03-11T15:37:42.028Z,6.20
2019-03-11T15:40:12.237Z,6.20
2019-03-11T15:42:41.598Z,6.20
2019-03-11T15:45:12.990Z,6.30
2019-03-11T15:47:42.367Z,6.30
2019-03-11T15:50:14.833Z,6.50
2019-03-11T15:52:44.158Z,6.50
2019-03-11T15:55:14.465Z,6.50
2019-03-11T15:57:43.821Z,6.40
2019-03-11T16:00:15.840Z,6.40
2019-03-11T16:02:45.688Z,6.40
2019-03-11T16:05:15.463Z,6.70
2019-03-11T16:07:44.862Z,6.70
2019-03-11T16:10:17.165Z,6.60
2019-03-11T16:12:45.392Z,6.50
2019-03-11T16:15:15.009Z,6.50
2019-03-11T16:17:44.633Z,6.50
2019-03-11T16:20:14.576Z,6.40
2019-03-11T16:22:44.017Z,6.40
2019-03-11T16:25:13.785Z,6.50
2019-03-11T16:27:43.228Z,6.40
2019-03-11T16:30:17.343Z,6.30
2019-03-11T16:32:58.418Z,6.30
2019-03-11T16:35:18.398Z,6.20
2019-03-11T16:37:48.004Z,6.10
2019-03-11T16:40:17.409Z,6.30
2019-03-11T16:42:46.826Z,6.00
2019-03-11T16:45:17.081Z,6.10
2019-03-11T16:47:46.485Z,6.20
2019-03-11T16:50:16.697Z,6.10
2019-03-11T16:52:46.053Z,6.20
2019-03-11T16:55:17.230Z,6.30
2019-03-11T16:57:46.604Z,6.20
2019-03-11T17:00:22.915Z,6.20
2019-03-11T17:02:52.216Z,6.00
2019-03-11T17:05:21.630Z,6.00
2019-03-11T17:07:51.055Z,6.10
2019-03-11T17:10:20.460Z,6.10
2019-03-11T17:12:49.860Z,6.00
2019-03-11T17:15:19.196Z,6.00
2019-03-11T17:17:48.692Z,6.10
2019-03-11T17:20:18.034Z,6.10
2019-03-11T17:22:47.378Z,6.20
2019-03-11T17:25:18.676Z,6.00
2019-03-11T17:27:48.019Z,6.00
2019-03-11T17:30:17.493Z,6.00
2019-03-11T17:32:46.794Z,6.00
2019-03-11T17:35:16.596Z,6.20
2019-03-11T17:37:46.160Z,6.20
2019-03-11T17:40:16.937Z,6.20
2019-03-11T17:42:46.397Z,6.40
2019-03-11T17:45:16.121Z,6.30
2019-03-11T17:47:45.518Z,6.30
2019-03-11T17:50:15.521Z,5.90
2019-03-11T17:52:45.049Z,5.80
2019-03-11T17:55:15.191Z,5.60
2019-03-11T17:57:44.654Z,5.70
2019-03-11T18:00:19.961Z,5.70
2019-03-11T18:02:49.334Z,5.70
2019-03-11T18:05:18.755Z,5.80
2019-03-11T18:07:48.196Z,5.90
2019-03-11T18:10:17.575Z,5.80
2019-03-11T18:12:47.156Z,5.80
2019-03-11T18:15:17.085Z,5.80
2019-03-11T18:17:46.515Z,5.70
2019-03-11T18:20:15.772Z,5.60
2019-03-11T18:22:45.072Z,5.50
2019-03-11T18:25:15.478Z,5.50
2019-03-11T18:27:44.954Z,5.30
2019-03-11T18:30:17.424Z,5.10
2019-03-11T18:32:46.773Z,5.00
2019-03-11T18:35:16.041Z,5.20
2019-03-11T18:37:45.428Z,5.30
2019-03-11T18:40:14.989Z,5.30
2019-03-11T18:42:44.300Z,5.00
2019-03-11T18:45:14.113Z,4.90
2019-03-11T18:47:43.470Z,4.80
2019-03-11T18:50:13.233Z,4.60
2019-03-11T18:52:42.733Z,4.90
2019-03-11T18:55:12.111Z,5.00
2019-03-11T18:57:41.609Z,4.80
2019-03-11T19:00:11.959Z,4.50
2019-03-11T19:02:41.283Z,4.50
2019-03-11T19:05:11.517Z,4.50
2019-03-11T19:07:40.941Z,4.60
2019-03-11T19:10:11.250Z,4.70
2019-03-11T19:12:40.699Z,4.70
2019-03-11T19:15:11.886Z,4.70
2019-03-11T19:17:41.303Z,4.60
2019-03-11T19:20:12.480Z,4.80
2019-03-11T19:22:41.742Z,4.80
2019-03-11T19:25:11.239Z,4.80
2019-03-11T19:27:40.654Z,4.70
2019-03-11T19:30:13.574Z,4.60
2019-03-11T19:32:43.152Z,4.70
2019-03-11T19:35:12.644Z,4.70
2019-03-11T19:37:42.006Z,4.60
2019-03-11T19:40:11.864Z,4.50
2019-03-11T19:42:43.237Z,4.50
2019-03-11T19:45:12.711Z,4.50
2019-03-11T19:47:42.137Z,4.40
2019-03-11T19:50:12.501Z,4.30
2019-03-11T19:52:41.969Z,4.30
2019-03-11T19:55:11.258Z,4.30
2019-03-11T19:57:42.388Z,4.40
2019-03-11T20:00:15.336Z,4.30
2019-03-11T20:02:44.760Z,4.30
2019-03-11T20:05:14.712Z,4.20
2019-03-11T20:07:44.328Z,4.30
2019-03-11T20:10:14.180Z,4.30
2019-03-11T20:12:43.426Z,4.20
2019-03-11T20:15:13.675Z,4.10
2019-03-11T20:17:43.012Z,4.10
2019-03-11T20:20:13.941Z,4.10
2019-03-11T20:22:43.258Z,4.10
2019-03-11T20:25:15.036Z,4.20
2019-03-11T20:27:44.446Z,4.00
2019-03-11T20:30:18.942Z,4.00
2019-03-11T20:32:48.428Z,4.00
2019-03-11T20:35:18.020Z,4.00
2019-03-11T20:37:47.915Z,3.90
2019-03-11T20:40:17.419Z,3.90
2019-03-11T20:42:46.762Z,4.00
2019-03-11T20:45:16.234Z,3.90
2019-03-11T20:47:45.571Z,3.90
2019-03-11T20:50:14.885Z,4.10
2019-03-11T20:52:44.236Z,4.00
2019-03-11T20:55:14.100Z,3.80
2019-03-11T20:57:43.398Z,3.70
2019-03-11T21:00:17.574Z,3.70
2019-03-11T21:03:00.073Z,3.70
2019-03-11T21:05:30.318Z,3.60
2019-03-11T21:07:59.587Z,3.70
2019-03-11T21:10:29.447Z,3.60
2019-03-11T21:12:59.194Z,3.70
2019-03-11T21:15:28.762Z,3.70
2019-03-11T21:17:58.170Z,3.60
2019-03-11T21:20:27.494Z,3.60
2019-03-11T21:22:57.384Z,3.50
2019-03-11T21:25:26.764Z,3.50
2019-03-11T21:27:56.194Z,3.70
2019-03-11T21:30:25.535Z,3.60
2019-03-11T21:32:55.236Z,3.50
2019-03-11T21:35:24.652Z,3.50
2019-03-11T21:37:53.955Z,3.50
2019-03-11T21:40:23.612Z,3.60
2019-03-11T21:42:53.437Z,3.60
2019-03-11T21:45:33.605Z,3.50
2019-03-11T21:47:53.758Z,3.50
2019-03-11T21:50:23.475Z,3.60
2019-03-11T21:52:52.815Z,3.50
2019-03-11T21:55:22.270Z,3.50
2019-03-11T21:57:51.666Z,3.40
2019-03-11T22:00:32.997Z,3.40
2019-03-11T22:02:54.277Z,3.50
2019-03-11T22:05:23.568Z,3.40
2019-03-11T22:07:52.961Z,3.40
2019-03-11T22:10:22.245Z,3.40
2019-03-11T22:12:51.634Z,3.30
2019-03-11T22:15:20.905Z,3.30
2019-03-11T22:17:50.332Z,3.30
2019-03-11T22:20:19.717Z,3.20
2019-03-11T22:22:48.969Z,3.30
2019-03-11T22:25:18.390Z,3.20
2019-03-11T22:27:47.668Z,3.20
2019-03-11T22:30:18.307Z,3.20
2019-03-11T22:32:47.592Z,3.20
2019-03-11T22:35:17.064Z,3.20
2019-03-11T22:37:46.947Z,3.20
2019-03-11T22:40:16.658Z,3.30
2019-03-11T22:42:45.975Z,3.20
2019-03-11T22:45:17.600Z,3.20
2019-03-11T22:47:46.936Z,3.20
2019-03-11T22:50:17.846Z,3.10
2019-03-11T22:52:47.965Z,3.10
2019-03-11T22:55:18.881Z,3.10
2019-03-11T22:57:48.594Z,3.10
2019-03-11T23:00:35.372Z,3.10
2019-03-11T23:03:06.758Z,3.00
2019-03-11T23:05:36.197Z,3.10
2019-03-11T23:08:05.692Z,3.00
2019-03-11T23:10:34.965Z,2.90
2019-03-11T23:13:04.314Z,3.00
2019-03-11T23:15:33.621Z,3.00
2019-03-11T23:18:02.954Z,3.00
2019-03-11T23:20:32.263Z,3.00
2019-03-11T23:23:01.622Z,3.00
2019-03-11T23:25:30.935Z,3.10
2019-03-11T23:28:00.234Z,3.10
2019-03-11T23:30:29.558Z,3.00
2019-03-11T23:32:58.861Z,3.10
2019-03-11T23:35:28.149Z,3.00
2019-03-11T23:37:57.469Z,3.20
2019-03-11T23:40:26.810Z,3.10
2019-03-11T23:42:56.303Z,3.10
2019-03-11T23:45:25.709Z,3.10
2019-03-11T23:47:55.173Z,3.10
2019-03-11T23:50:24.432Z,3.20
2019-03-11T23:52:53.763Z,3.20
2019-03-11T23:55:23.505Z,3.30
2019-03-11T23:57:52.847Z,3.30
